sensor_id;sensor_type;location;lat;lon;timestamp;P1;durP1;ratioP1;P2;durP2;ratioP2
56599;SDS011;51832;48.152;11.530;2022-12-18T00:01:50;41.03;;;15.57;;
56599;SDS011;51832;48.152;11.530;2022-12-18T00:06:51;37.50;;;14.88;;
56599;SDS011;51832;48.152;11.530;2022-12-18T00:11:52;34.30;;;13.00;;
56599;SDS011;51832;48.152;11.530;2022-12-18T00:16:53;34.83;;;12.50;;
56599;SDS011;51832;48.152;11.530;2022-12-18T00:21:53;33.97;;;14.30;;
56599;SDS011;51832;48.152;11.530;2022-12-18T00:26:54;41.40;;;15.35;;
56599;SDS011;51832;48.152;11.530;2022-12-18T00:31:54;44.15;;;15.80;;
56599;SDS011;51832;48.152;11.530;2022-12-18T00:36:54;38.85;;;14.98;;
56599;SDS011;51832;48.152;11.530;2022-12-18T00:41:55;42.08;;;15.75;;
56599;SDS011;51832;48.152;11.530;2022-12-18T00:47:14;44.60;;;15.50;;
56599;SDS011;51832;48.152;11.530;2022-12-18T00:52:14;45.28;;;16.20;;
56599;SDS011;51832;48.152;11.530;2022-12-18T00:57:14;41.63;;;15.40;;
56599;SDS011;51832;48.152;11.530;2022-12-18T01:02:15;36.72;;;15.05;;
56599;SDS011;51832;48.152;11.530;2022-12-18T01:07:15;40.72;;;15.73;;
56599;SDS011;51832;48.152;11.530;2022-12-18T01:12:16;44.95;;;15.55;;
56599;SDS011;51832;48.152;11.530;2022-12-18T01:17:16;36.95;;;15.00;;
56599;SDS011;51832;48.152;11.530;2022-12-18T01:22:16;31.75;;;12.23;;
56599;SDS011;51832;48.152;11.530;2022-12-18T01:27:17;41.75;;;14.07;;
56599;SDS011;51832;48.152;11.530;2022-12-18T01:32:17;38.50;;;13.10;;
56599;SDS011;51832;48.152;11.530;2022-12-18T01:37:18;36.28;;;14.13;;
56599;SDS011;51832;48.152;11.530;2022-12-18T01:42:18;34.50;;;13.50;;
56599;SDS011;51832;48.152;11.530;2022-12-18T01:47:23;42.78;;;14.80;;
56599;SDS011;51832;48.152;11.530;2022-12-18T01:52:28;39.90;;;13.73;;
56599;SDS011;51832;48.152;11.530;2022-12-18T01:57:32;36.17;;;12.63;;
56599;SDS011;51832;48.152;11.530;2022-12-18T02:02:33;34.50;;;13.27;;
56599;SDS011;51832;48.152;11.530;2022-12-18T02:13:11;35.55;;;13.23;;
56599;SDS011;51832;48.152;11.530;2022-12-18T02:18:30;35.50;;;13.95;;
56599;SDS011;51832;48.152;11.530;2022-12-18T02:24:06;36.53;;;14.30;;
56599;SDS011;51832;48.152;11.530;2022-12-18T02:29:12;38.05;;;13.13;;
56599;SDS011;51832;48.152;11.530;2022-12-18T02:34:16;39.83;;;12.93;;
56599;SDS011;51832;48.152;11.530;2022-12-18T02:39:18;39.95;;;13.90;;
56599;SDS011;51832;48.152;11.530;2022-12-18T02:44:21;43.67;;;16.00;;
56599;SDS011;51832;48.152;11.530;2022-12-18T03:00:13;41.03;;;14.15;;
56599;SDS011;51832;48.152;11.530;2022-12-18T03:05:20;37.00;;;13.65;;
56599;SDS011;51832;48.152;11.530;2022-12-18T03:10:28;44.97;;;16.23;;
56599;SDS011;51832;48.152;11.530;2022-12-18T03:15:34;36.85;;;14.07;;
56599;SDS011;51832;48.152;11.530;2022-12-18T03:20:40;42.15;;;15.90;;
56599;SDS011;51832;48.152;11.530;2022-12-18T03:25:44;41.25;;;14.73;;
56599;SDS011;51832;48.152;11.530;2022-12-18T03:30:47;40.22;;;14.30;;
56599;SDS011;51832;48.152;11.530;2022-12-18T03:35:50;40.38;;;15.30;;
56599;SDS011;51832;48.152;11.530;2022-12-18T03:40:56;44.10;;;15.18;;
56599;SDS011;51832;48.152;11.530;2022-12-18T03:46:15;39.93;;;15.73;;
56599;SDS011;51832;48.152;11.530;2022-12-18T03:51:31;40.15;;;14.20;;
56599;SDS011;51832;48.152;11.530;2022-12-18T03:56:35;50.13;;;15.80;;
56599;SDS011;51832;48.152;11.530;2022-12-18T04:01:45;41.42;;;15.55;;
56599;SDS011;51832;48.152;11.530;2022-12-18T04:06:49;50.30;;;16.17;;
56599;SDS011;51832;48.152;11.530;2022-12-18T04:11:51;36.50;;;13.63;;
56599;SDS011;51832;48.152;11.530;2022-12-18T04:16:52;41.92;;;14.43;;
56599;SDS011;51832;48.152;11.530;2022-12-18T04:21:52;43.88;;;15.38;;
56599;SDS011;51832;48.152;11.530;2022-12-18T04:26:52;39.88;;;14.52;;
56599;SDS011;51832;48.152;11.530;2022-12-18T04:31:53;40.75;;;15.18;;
56599;SDS011;51832;48.152;11.530;2022-12-18T04:36:54;40.28;;;13.45;;
56599;SDS011;51832;48.152;11.530;2022-12-18T04:41:54;40.40;;;13.90;;
56599;SDS011;51832;48.152;11.530;2022-12-18T04:46:55;42.10;;;15.00;;
56599;SDS011;51832;48.152;11.530;2022-12-18T04:51:55;38.03;;;14.50;;
56599;SDS011;51832;48.152;11.530;2022-12-18T04:56:56;42.40;;;14.32;;
56599;SDS011;51832;48.152;11.530;2022-12-18T05:01:56;33.25;;;11.23;;
56599;SDS011;51832;48.152;11.530;2022-12-18T05:06:57;36.72;;;12.88;;
56599;SDS011;51832;48.152;11.530;2022-12-18T05:11:57;32.83;;;12.43;;
56599;SDS011;51832;48.152;11.530;2022-12-18T05:16:57;34.78;;;12.57;;
56599;SDS011;51832;48.152;11.530;2022-12-18T05:21:58;36.88;;;13.95;;
56599;SDS011;51832;48.152;11.530;2022-12-18T05:26:58;34.00;;;12.52;;
56599;SDS011;51832;48.152;11.530;2022-12-18T05:31:59;36.50;;;13.07;;
56599;SDS011;51832;48.152;11.530;2022-12-18T05:36:59;30.20;;;12.10;;
56599;SDS011;51832;48.152;11.530;2022-12-18T05:41:59;35.17;;;12.23;;
56599;SDS011;51832;48.152;11.530;2022-12-18T05:47:00;36.47;;;13.18;;
56599;SDS011;51832;48.152;11.530;2022-12-18T05:52:00;33.10;;;13.55;;
56599;SDS011;51832;48.152;11.530;2022-12-18T05:57:00;46.42;;;15.50;;
56599;SDS011;51832;48.152;11.530;2022-12-18T06:02:01;63.55;;;19.05;;
56599;SDS011;51832;48.152;11.530;2022-12-18T06:07:01;41.63;;;14.35;;
56599;SDS011;51832;48.152;11.530;2022-12-18T06:12:02;33.17;;;13.45;;
56599;SDS011;51832;48.152;11.530;2022-12-18T06:17:02;32.38;;;12.00;;
56599;SDS011;51832;48.152;11.530;2022-12-18T06:22:03;28.10;;;11.60;;
56599;SDS011;51832;48.152;11.530;2022-12-18T06:27:03;34.55;;;12.95;;
56599;SDS011;51832;48.152;11.530;2022-12-18T06:32:04;30.13;;;11.70;;
56599;SDS011;51832;48.152;11.530;2022-12-18T06:37:04;28.48;;;12.10;;
56599;SDS011;51832;48.152;11.530;2022-12-18T06:42:05;28.35;;;11.13;;
56599;SDS011;51832;48.152;11.530;2022-12-18T06:47:05;35.35;;;12.30;;
56599;SDS011;51832;48.152;11.530;2022-12-18T06:52:05;31.80;;;12.85;;
56599;SDS011;51832;48.152;11.530;2022-12-18T06:57:06;29.15;;;11.52;;
56599;SDS011;51832;48.152;11.530;2022-12-18T07:02:06;28.15;;;12.65;;
56599;SDS011;51832;48.152;11.530;2022-12-18T07:07:10;31.50;;;11.27;;
56599;SDS011;51832;48.152;11.530;2022-12-18T07:12:10;33.38;;;12.55;;
56599;SDS011;51832;48.152;11.530;2022-12-18T07:17:11;30.80;;;11.82;;
56599;SDS011;51832;48.152;11.530;2022-12-18T07:22:11;38.35;;;12.30;;
56599;SDS011;51832;48.152;11.530;2022-12-18T07:27:12;30.52;;;12.00;;
56599;SDS011;51832;48.152;11.530;2022-12-18T07:32:12;32.78;;;12.38;;
56599;SDS011;51832;48.152;11.530;2022-12-18T07:37:12;34.05;;;12.13;;
56599;SDS011;51832;48.152;11.530;2022-12-18T07:42:13;32.47;;;11.88;;
56599;SDS011;51832;48.152;11.530;2022-12-18T07:47:33;36.35;;;11.32;;
56599;SDS011;51832;48.152;11.530;2022-12-18T07:52:35;30.60;;;11.10;;
56599;SDS011;51832;48.152;11.530;2022-12-18T07:57:35;31.33;;;12.13;;
56599;SDS011;51832;48.152;11.530;2022-12-18T08:02:36;31.27;;;11.88;;
56599;SDS011;51832;48.152;11.530;2022-12-18T08:07:36;31.27;;;12.18;;
56599;SDS011;51832;48.152;11.530;2022-12-18T08:12:37;29.77;;;12.52;;
56599;SDS011;51832;48.152;11.530;2022-12-18T08:17:37;31.55;;;12.48;;
56599;SDS011;51832;48.152;11.530;2022-12-18T08:22:38;37.70;;;12.50;;
56599;SDS011;51832;48.152;11.530;2022-12-18T08:27:39;26.70;;;11.00;;
56599;SDS011;51832;48.152;11.530;2022-12-18T08:32:39;29.45;;;11.63;;
56599;SDS011;51832;48.152;11.530;2022-12-18T08:37:40;30.15;;;11.20;;
56599;SDS011;51832;48.152;11.530;2022-12-18T08:42:40;24.70;;;9.98;;
56599;SDS011;51832;48.152;11.530;2022-12-18T08:47:59;31.33;;;11.68;;
56599;SDS011;51832;48.152;11.530;2022-12-18T08:53:00;29.27;;;11.35;;
56599;SDS011;51832;48.152;11.530;2022-12-18T08:58:01;27.10;;;10.68;;
56599;SDS011;51832;48.152;11.530;2022-12-18T09:03:01;28.75;;;10.50;;
56599;SDS011;51832;48.152;11.530;2022-12-18T09:08:02;29.45;;;11.05;;
56599;SDS011;51832;48.152;11.530;2022-12-18T09:13:02;34.80;;;12.82;;
56599;SDS011;51832;48.152;11.530;2022-12-18T09:18:02;25.85;;;10.13;;
56599;SDS011;51832;48.152;11.530;2022-12-18T09:23:03;28.67;;;10.63;;
56599;SDS011;51832;48.152;11.530;2022-12-18T09:28:06;30.33;;;11.10;;
56599;SDS011;51832;48.152;11.530;2022-12-18T09:33:10;28.70;;;10.85;;
56599;SDS011;51832;48.152;11.530;2022-12-18T09:38:12;24.08;;;10.60;;
56599;SDS011;51832;48.152;11.530;2022-12-18T09:43:16;26.25;;;9.88;;
56599;SDS011;51832;48.152;11.530;2022-12-18T09:48:23;24.73;;;10.02;;
56599;SDS011;51832;48.152;11.530;2022-12-18T09:53:30;26.73;;;10.40;;
56599;SDS011;51832;48.152;11.530;2022-12-18T09:58:39;24.70;;;10.07;;
56599;SDS011;51832;48.152;11.530;2022-12-18T10:03:45;29.40;;;10.98;;
56599;SDS011;51832;48.152;11.530;2022-12-18T10:19:39;30.67;;;10.52;;
56599;SDS011;51832;48.152;11.530;2022-12-18T10:25:01;27.65;;;10.38;;
56599;SDS011;51832;48.152;11.530;2022-12-18T10:30:23;28.05;;;10.25;;
56599;SDS011;51832;48.152;11.530;2022-12-18T10:35:26;24.70;;;10.32;;
56599;SDS011;51832;48.152;11.530;2022-12-18T10:40:26;25.00;;;9.85;;
56599;SDS011;51832;48.152;11.530;2022-12-18T10:45:27;25.15;;;10.75;;
56599;SDS011;51832;48.152;11.530;2022-12-18T10:50:34;26.35;;;10.85;;
56599;SDS011;51832;48.152;11.530;2022-12-18T10:55:38;24.80;;;9.93;;
56599;SDS011;51832;48.152;11.530;2022-12-18T11:00:39;27.63;;;10.50;;
56599;SDS011;51832;48.152;11.530;2022-12-18T11:05:41;25.83;;;11.18;;
56599;SDS011;51832;48.152;11.530;2022-12-18T11:10:41;31.27;;;10.98;;
56599;SDS011;51832;48.152;11.530;2022-12-18T11:15:47;29.40;;;10.95;;
56599;SDS011;51832;48.152;11.530;2022-12-18T11:20:55;28.85;;;12.13;;
56599;SDS011;51832;48.152;11.530;2022-12-18T11:25:59;27.85;;;11.45;;
56599;SDS011;51832;48.152;11.530;2022-12-18T11:31:09;28.75;;;11.55;;
56599;SDS011;51832;48.152;11.530;2022-12-18T11:36:16;28.75;;;10.82;;
56599;SDS011;51832;48.152;11.530;2022-12-18T11:47:00;29.10;;;11.02;;
56599;SDS011;51832;48.152;11.530;2022-12-18T11:52:10;21.45;;;10.07;;
56599;SDS011;51832;48.152;11.530;2022-12-18T11:57:32;26.92;;;11.10;;
56599;SDS011;51832;48.152;11.530;2022-12-18T12:30:29;27.23;;;10.27;;
56599;SDS011;51832;48.152;11.530;2022-12-18T12:40:51;26.50;;;9.73;;
56599;SDS011;51832;48.152;11.530;2022-12-18T12:51:00;22.90;;;11.38;;
56599;SDS011;51832;48.152;11.530;2022-12-18T12:56:04;27.60;;;10.55;;
56599;SDS011;51832;48.152;11.530;2022-12-18T13:01:09;24.65;;;10.85;;
56599;SDS011;51832;48.152;11.530;2022-12-18T13:22:28;24.98;;;11.35;;
56599;SDS011;51832;48.152;11.530;2022-12-18T13:27:45;27.55;;;10.40;;
56599;SDS011;51832;48.152;11.530;2022-12-18T13:48:37;24.73;;;11.93;;
56599;SDS011;51832;48.152;11.530;2022-12-18T13:53:39;26.27;;;11.13;;
56599;SDS011;51832;48.152;11.530;2022-12-18T13:58:44;26.35;;;10.32;;
56599;SDS011;51832;48.152;11.530;2022-12-18T14:03:45;26.08;;;10.45;;
56599;SDS011;51832;48.152;11.530;2022-12-18T14:08:45;30.73;;;10.63;;
56599;SDS011;51832;48.152;11.530;2022-12-18T14:13:47;23.23;;;10.15;;
56599;SDS011;51832;48.152;11.530;2022-12-18T14:23:48;27.37;;;10.57;;
56599;SDS011;51832;48.152;11.530;2022-12-18T14:28:48;26.73;;;11.00;;
56599;SDS011;51832;48.152;11.530;2022-12-18T14:33:49;21.70;;;10.93;;
56599;SDS011;51832;48.152;11.530;2022-12-18T14:38:51;29.10;;;10.82;;
56599;SDS011;51832;48.152;11.530;2022-12-18T14:43:56;28.65;;;11.45;;
56599;SDS011;51832;48.152;11.530;2022-12-18T14:54:24;27.17;;;10.52;;
56599;SDS011;51832;48.152;11.530;2022-12-18T14:59:27;28.17;;;10.37;;
56599;SDS011;51832;48.152;11.530;2022-12-18T15:04:38;25.50;;;10.80;;
56599;SDS011;51832;48.152;11.530;2022-12-18T15:09:41;28.80;;;10.68;;
56599;SDS011;51832;48.152;11.530;2022-12-18T15:14:43;30.00;;;11.27;;
56599;SDS011;51832;48.152;11.530;2022-12-18T15:19:44;26.60;;;11.10;;
56599;SDS011;51832;48.152;11.530;2022-12-18T15:24:45;27.15;;;11.20;;
56599;SDS011;51832;48.152;11.530;2022-12-18T15:29:59;29.13;;;13.15;;
56599;SDS011;51832;48.152;11.530;2022-12-18T15:35:24;26.17;;;10.50;;
56599;SDS011;51832;48.152;11.530;2022-12-18T15:40:24;26.42;;;11.25;;
56599;SDS011;51832;48.152;11.530;2022-12-18T15:45:25;31.02;;;12.23;;
56599;SDS011;51832;48.152;11.530;2022-12-18T15:50:25;29.45;;;12.27;;
56599;SDS011;51832;48.152;11.530;2022-12-18T15:55:26;27.92;;;12.30;;
56599;SDS011;51832;48.152;11.530;2022-12-18T16:00:45;28.92;;;11.93;;
56599;SDS011;51832;48.152;11.530;2022-12-18T16:05:45;29.13;;;11.48;;
56599;SDS011;51832;48.152;11.530;2022-12-18T16:10:46;27.90;;;11.60;;
56599;SDS011;51832;48.152;11.530;2022-12-18T16:15:46;29.42;;;11.07;;
56599;SDS011;51832;48.152;11.530;2022-12-18T16:20:46;25.45;;;11.35;;
56599;SDS011;51832;48.152;11.530;2022-12-18T16:25:47;27.27;;;10.93;;
56599;SDS011;51832;48.152;11.530;2022-12-18T16:30:47;25.05;;;11.05;;
56599;SDS011;51832;48.152;11.530;2022-12-18T16:35:51;30.20;;;11.52;;
56599;SDS011;51832;48.152;11.530;2022-12-18T16:40:52;37.92;;;13.77;;
56599;SDS011;51832;48.152;11.530;2022-12-18T16:46:11;38.90;;;13.73;;
56599;SDS011;51832;48.152;11.530;2022-12-18T16:51:11;34.67;;;12.50;;
56599;SDS011;51832;48.152;11.530;2022-12-18T16:56:12;31.63;;;12.05;;
56599;SDS011;51832;48.152;11.530;2022-12-18T17:01:12;31.13;;;12.18;;
56599;SDS011;51832;48.152;11.530;2022-12-18T17:06:13;34.08;;;12.93;;
56599;SDS011;51832;48.152;11.530;2022-12-18T17:11:13;31.67;;;12.23;;
56599;SDS011;51832;48.152;11.530;2022-12-18T17:16:14;31.77;;;11.90;;
56599;SDS011;51832;48.152;11.530;2022-12-18T17:21:14;32.78;;;13.07;;
56599;SDS011;51832;48.152;11.530;2022-12-18T17:26:15;29.35;;;11.73;;
56599;SDS011;51832;48.152;11.530;2022-12-18T17:31:19;31.52;;;12.32;;
56599;SDS011;51832;48.152;11.530;2022-12-18T17:36:21;32.08;;;12.43;;
56599;SDS011;51832;48.152;11.530;2022-12-18T17:41:22;31.58;;;11.65;;
56599;SDS011;51832;48.152;11.530;2022-12-18T17:46:24;36.88;;;13.45;;
56599;SDS011;51832;48.152;11.530;2022-12-18T17:51:25;30.17;;;12.25;;
56599;SDS011;51832;48.152;11.530;2022-12-18T17:56:26;38.40;;;14.65;;
56599;SDS011;51832;48.152;11.530;2022-12-18T18:01:27;32.30;;;12.40;;
56599;SDS011;51832;48.152;11.530;2022-12-18T18:06:28;36.80;;;12.82;;
56599;SDS011;51832;48.152;11.530;2022-12-18T18:11:28;34.75;;;13.15;;
56599;SDS011;51832;48.152;11.530;2022-12-18T18:16:48;35.75;;;12.65;;
56599;SDS011;51832;48.152;11.530;2022-12-18T18:21:51;42.50;;;13.68;;
56599;SDS011;51832;48.152;11.530;2022-12-18T18:26:52;35.08;;;14.07;;
56599;SDS011;51832;48.152;11.530;2022-12-18T18:31:53;38.60;;;14.30;;
56599;SDS011;51832;48.152;11.530;2022-12-18T18:36:53;34.15;;;14.15;;
56599;SDS011;51832;48.152;11.530;2022-12-18T18:41:54;32.60;;;12.98;;
56599;SDS011;51832;48.152;11.530;2022-12-18T18:46:55;33.80;;;13.82;;
56599;SDS011;51832;48.152;11.530;2022-12-18T18:51:56;43.40;;;14.20;;
56599;SDS011;51832;48.152;11.530;2022-12-18T18:56:58;42.20;;;14.88;;
56599;SDS011;51832;48.152;11.530;2022-12-18T19:01:59;41.10;;;13.45;;
56599;SDS011;51832;48.152;11.530;2022-12-18T19:06:59;42.33;;;14.63;;
56599;SDS011;51832;48.152;11.530;2022-12-18T19:12:00;40.13;;;14.70;;
56599;SDS011;51832;48.152;11.530;2022-12-18T19:17:19;34.95;;;14.52;;
56599;SDS011;51832;48.152;11.530;2022-12-18T19:22:20;38.50;;;15.30;;
56599;SDS011;51832;48.152;11.530;2022-12-18T19:27:22;44.30;;;16.85;;
56599;SDS011;51832;48.152;11.530;2022-12-18T19:32:22;46.67;;;16.65;;
56599;SDS011;51832;48.152;11.530;2022-12-18T19:37:23;42.35;;;14.32;;
56599;SDS011;51832;48.152;11.530;2022-12-18T19:42:24;39.10;;;13.95;;
56599;SDS011;51832;48.152;11.530;2022-12-18T19:47:24;37.90;;;14.98;;
56599;SDS011;51832;48.152;11.530;2022-12-18T19:52:25;36.55;;;13.27;;
56599;SDS011;51832;48.152;11.530;2022-12-18T19:57:25;34.22;;;14.00;;
56599;SDS011;51832;48.152;11.530;2022-12-18T20:02:26;36.92;;;14.30;;
56599;SDS011;51832;48.152;11.530;2022-12-18T20:07:26;41.17;;;14.75;;
56599;SDS011;51832;48.152;11.530;2022-12-18T20:12:27;40.65;;;15.15;;
56599;SDS011;51832;48.152;11.530;2022-12-18T20:17:30;47.35;;;17.33;;
56599;SDS011;51832;48.152;11.530;2022-12-18T20:22:30;48.97;;;16.27;;
56599;SDS011;51832;48.152;11.530;2022-12-18T20:27:30;38.38;;;14.38;;
56599;SDS011;51832;48.152;11.530;2022-12-18T20:32:31;47.55;;;16.27;;
56599;SDS011;51832;48.152;11.530;2022-12-18T20:37:31;46.00;;;15.95;;
56599;SDS011;51832;48.152;11.530;2022-12-18T20:42:32;42.75;;;15.07;;
56599;SDS011;51832;48.152;11.530;2022-12-18T20:47:32;35.58;;;13.75;;
56599;SDS011;51832;48.152;11.530;2022-12-18T20:52:32;44.88;;;16.65;;
56599;SDS011;51832;48.152;11.530;2022-12-18T20:57:33;45.65;;;16.55;;
56599;SDS011;51832;48.152;11.530;2022-12-18T21:02:33;38.88;;;13.60;;
56599;SDS011;51832;48.152;11.530;2022-12-18T21:07:34;39.70;;;15.32;;
56599;SDS011;51832;48.152;11.530;2022-12-18T21:12:34;42.22;;;14.82;;
56599;SDS011;51832;48.152;11.530;2022-12-18T21:17:38;34.60;;;14.30;;
56599;SDS011;51832;48.152;11.530;2022-12-18T21:22:38;33.28;;;14.10;;
56599;SDS011;51832;48.152;11.530;2022-12-18T21:27:39;43.40;;;14.88;;
56599;SDS011;51832;48.152;11.530;2022-12-18T21:32:40;42.33;;;14.43;;
56599;SDS011;51832;48.152;11.530;2022-12-18T21:37:40;39.22;;;15.55;;
56599;SDS011;51832;48.152;11.530;2022-12-18T21:42:40;36.90;;;13.15;;
56599;SDS011;51832;48.152;11.530;2022-12-18T21:48:00;40.78;;;14.88;;
56599;SDS011;51832;48.152;11.530;2022-12-18T21:53:00;36.08;;;13.85;;
56599;SDS011;51832;48.152;11.530;2022-12-18T21:58:00;45.42;;;14.73;;
56599;SDS011;51832;48.152;11.530;2022-12-18T22:03:01;44.33;;;15.10;;
56599;SDS011;51832;48.152;11.530;2022-12-18T22:08:01;39.33;;;14.05;;
56599;SDS011;51832;48.152;11.530;2022-12-18T22:13:02;44.78;;;15.40;;
56599;SDS011;51832;48.152;11.530;2022-12-18T22:18:04;35.63;;;13.45;;
56599;SDS011;51832;48.152;11.530;2022-12-18T22:23:04;44.05;;;14.27;;
56599;SDS011;51832;48.152;11.530;2022-12-18T22:28:04;43.35;;;14.73;;
56599;SDS011;51832;48.152;11.530;2022-12-18T22:33:23;36.42;;;13.95;;
56599;SDS011;51832;48.152;11.530;2022-12-18T22:38:24;43.25;;;13.90;;
56599;SDS011;51832;48.152;11.530;2022-12-18T22:43:24;36.88;;;13.98;;
56599;SDS011;51832;48.152;11.530;2022-12-18T22:48:25;39.47;;;15.13;;
56599;SDS011;51832;48.152;11.530;2022-12-18T22:53:25;38.70;;;12.45;;
56599;SDS011;51832;48.152;11.530;2022-12-18T22:58:25;30.85;;;12.65;;
56599;SDS011;51832;48.152;11.530;2022-12-18T23:03:26;37.95;;;13.68;;
56599;SDS011;51832;48.152;11.530;2022-12-18T23:08:27;30.73;;;14.02;;
56599;SDS011;51832;48.152;11.530;2022-12-18T23:13:27;38.92;;;14.25;;
56599;SDS011;51832;48.152;11.530;2022-12-18T23:18:27;35.42;;;13.23;;
56599;SDS011;51832;48.152;11.530;2022-12-18T23:23:28;40.75;;;14.65;;
56599;SDS011;51832;48.152;11.530;2022-12-18T23:28:29;37.67;;;13.68;;
56599;SDS011;51832;48.152;11.530;2022-12-18T23:33:30;36.40;;;12.47;;
56599;SDS011;51832;48.152;11.530;2022-12-18T23:38:31;36.50;;;14.13;;
56599;SDS011;51832;48.152;11.530;2022-12-18T23:43:32;39.33;;;14.85;;
56599;SDS011;51832;48.152;11.530;2022-12-18T23:48:33;36.55;;;13.25;;
56599;SDS011;51832;48.152;11.530;2022-12-18T23:53:33;39.67;;;13.88;;
56599;SDS011;51832;48.152;11.530;2022-12-18T23:58:34;41.03;;;15.18;;
